Tuxedo, New York
Current Conditions -  °F | °C
As of 12:05 AM on Thursday 23 Oct 2014 (Local Time) from KFWN Reporting Station
Light Rain Light Rain  
Wind Chill: 52°   Ceiling: 2800
Heat Index: 52°   Visibility: 10mi
Dew Point: 46°   Wind: 6mph
Humidity: 80%   Direction: 20°NNE
Pressure: 29.82"   Gusts: NA
Location:  41.1969°N, 74.224°W
Report Text: KFWN 230405Z AUTO 02005KT 10SM -RA BKN028 OVC042 11/08 A2982 RMK AO2 P0000 T01110078
Loading
Personal Weather Stations






























Interactive Weather Map
Tropical Storm Tracking
New forecast layout! Learn more

10-Day Weather Forecast

Advertisements
Track Severe Weather on mobile